Terminal Aerodrome Forecast
Issued by NWS

Home | Current Version | Previous Version | Text Only | Print | Product List | Glossary On
Versions: 1 2 3 4 5 6 7 8 9 10 11 12 13 14 15 16
000
FTUS45 KRIW 261100
TAFJAC
TAF
KJAC 261126Z 2612/2712 21015G25KT P6SM VCSH SCT030 OVC050
      TEMPO 2612/2616 -SHRA BKN030
     FM270100 19009KT P6SM SCT050 SCT080
     FM270600 21007KT P6SM SCT025 BKN035
      AMD LTD TO CLD VIS AND WIND=

USA.gov is the U.S. government's official web portal to all federal, state and local government web resources and services.